createdAt,value
2022-12-17T00:00:08.072Z,2.88
2022-12-17T00:02:53.826Z,2.56
2022-12-17T00:05:47.337Z,2.68
2022-12-17T00:08:33.162Z,2.36
2022-12-17T00:11:19.832Z,2.85
2022-12-17T00:14:06.847Z,2.55
2022-12-17T00:16:54.773Z,2.12
2022-12-17T00:19:43.037Z,2.59
2022-12-17T00:22:31.338Z,2.81
2022-12-17T00:25:21.018Z,2.79
2022-12-17T00:28:07.868Z,2.98
2022-12-17T00:30:56.237Z,2.73
2022-12-17T00:33:44.321Z,2.64
2022-12-17T00:36:30.681Z,2.92
2022-12-17T00:39:21.614Z,2.37
2022-12-17T00:42:19.613Z,2.46
2022-12-17T00:45:05.673Z,2.22
2022-12-17T00:47:51.696Z,1.66
2022-12-17T00:50:37.685Z,2.54
2022-12-17T00:53:23.665Z,2.37
2022-12-17T00:56:11.716Z,2.58
2022-12-17T00:58:58.411Z,2.15
2022-12-17T01:01:45.229Z,2.45
2022-12-17T01:04:31.568Z,2.21
2022-12-17T01:07:17.899Z,2.26
2022-12-17T01:10:05.364Z,2.04
2022-12-17T01:12:54.592Z,2.27
2022-12-17T01:15:42.701Z,1.77
2022-12-17T01:18:35.208Z,1.73
2022-12-17T01:21:21.725Z,1.55
2022-12-17T01:24:09.069Z,2.22
2022-12-17T01:26:58.060Z,2.07
2022-12-17T01:29:46.112Z,1.93
2022-12-17T01:32:33.036Z,2.21
2022-12-17T01:35:18.975Z,2.10
2022-12-17T01:38:07.806Z,2.45
2022-12-17T01:40:55.146Z,2.06
2022-12-17T01:43:52.787Z,1.99
2022-12-17T01:46:42.086Z,1.78
2022-12-17T01:49:31.085Z,1.93
2022-12-17T01:52:21.237Z,1.84
2022-12-17T01:55:08.287Z,1.79
2022-12-17T01:57:55.288Z,2.24
2022-12-17T02:00:41.837Z,2.24
2022-12-17T02:03:35.816Z,1.60
2022-12-17T02:06:30.740Z,1.52
2022-12-17T02:09:31.321Z,2.38
2022-12-17T02:12:39.958Z,1.87
2022-12-17T02:15:36.784Z,1.39
2022-12-17T02:18:36.241Z,1.48
2022-12-17T02:21:25.582Z,1.75
2022-12-17T02:24:24.221Z,1.88
2022-12-17T02:27:14.657Z,1.32
2022-12-17T02:30:07.707Z,1.37
2022-12-17T02:32:57.049Z,1.68
2022-12-17T02:35:48.370Z,1.28
2022-12-17T02:38:42.066Z,1.63
2022-12-17T02:41:33.479Z,1.88
2022-12-17T02:44:22.720Z,1.57
2022-12-17T02:47:11.892Z,1.59
2022-12-17T02:49:58.453Z,1.93
2022-12-17T02:52:46.675Z,1.79
2022-12-17T02:55:32.623Z,1.52
2022-12-17T02:58:18.720Z,1.74
2022-12-17T03:01:09.253Z,1.40
2022-12-17T03:03:54.215Z,1.59
2022-12-17T03:06:42.147Z,1.79
2022-12-17T03:09:36.821Z,1.64
2022-12-17T03:12:25.158Z,1.82
2022-12-17T03:15:12.068Z,1.64
2022-12-17T03:18:00.203Z,2.18
2022-12-17T03:20:46.369Z,1.51
2022-12-17T03:23:43.454Z,1.65
2022-12-17T03:26:30.394Z,1.98
2022-12-17T03:29:23.968Z,2.05
2022-12-17T03:32:10.976Z,1.88
2022-12-17T03:34:58.748Z,1.46
2022-12-17T03:37:44.626Z,1.41
2022-12-17T03:40:36.191Z,1.92
2022-12-17T03:43:27.834Z,1.95
2022-12-17T03:46:14.562Z,1.79
2022-12-17T03:49:02.213Z,1.98
2022-12-17T03:51:50.385Z,1.70
2022-12-17T03:54:36.505Z,1.83
2022-12-17T03:57:22.802Z,1.78
2022-12-17T04:00:10.205Z,2.01
2022-12-17T04:02:59.318Z,1.71
2022-12-17T04:05:45.675Z,2.02
2022-12-17T04:08:33.371Z,1.87
2022-12-17T04:11:23.076Z,1.51
2022-12-17T04:14:23.827Z,1.99
2022-12-17T04:17:11.664Z,2.04
2022-12-17T04:19:58.485Z,2.10
2022-12-17T04:22:44.745Z,2.28
2022-12-17T04:25:33.820Z,2.10
2022-12-17T04:28:20.133Z,2.38
2022-12-17T04:31:05.958Z,2.23
2022-12-17T04:33:52.026Z,1.57
2022-12-17T04:36:39.925Z,1.79
2022-12-17T04:39:28.111Z,1.72
2022-12-17T04:42:16.204Z,2.02
2022-12-17T04:45:02.327Z,1.87
2022-12-17T04:47:48.490Z,1.77
2022-12-17T04:50:34.707Z,2.29
2022-12-17T04:53:22.065Z,1.62
2022-12-17T04:56:08.538Z,1.83
2022-12-17T04:58:55.937Z,1.79
2022-12-17T05:01:43.014Z,1.80
2022-12-17T05:04:29.359Z,1.45
2022-12-17T05:07:16.182Z,1.50
2022-12-17T05:10:02.514Z,1.60
2022-12-17T05:12:48.968Z,1.36
2022-12-17T05:15:33.515Z,1.77
2022-12-17T05:18:23.771Z,1.77
2022-12-17T05:21:09.706Z,1.86
2022-12-17T05:23:55.962Z,1.62
2022-12-17T05:26:46.358Z,1.40
2022-12-17T05:29:33.404Z,1.88
2022-12-17T05:32:29.443Z,1.24
2022-12-17T05:35:16.238Z,1.38
2022-12-17T05:38:04.394Z,1.50
2022-12-17T05:40:51.601Z,1.46
2022-12-17T05:43:38.476Z,1.03
2022-12-17T05:46:26.976Z,1.51
2022-12-17T05:49:16.271Z,1.41
2022-12-17T05:52:02.416Z,1.43
2022-12-17T05:54:48.227Z,1.68
2022-12-17T05:57:47.040Z,1.38
2022-12-17T06:00:36.607Z,1.56
2022-12-17T06:03:24.027Z,1.65
2022-12-17T06:06:15.195Z,1.55
2022-12-17T06:09:01.636Z,2.02
2022-12-17T06:11:48.105Z,1.71
2022-12-17T06:14:35.154Z,2.12
2022-12-17T06:17:21.156Z,1.54
2022-12-17T06:20:08.984Z,1.90
2022-12-17T06:22:56.267Z,1.69
2022-12-17T06:25:42.529Z,1.61
2022-12-17T06:28:29.774Z,1.82
2022-12-17T06:31:15.894Z,2.45
2022-12-17T06:34:01.822Z,2.36
2022-12-17T06:36:47.993Z,1.78
2022-12-17T06:39:35.947Z,1.98
2022-12-17T06:42:21.940Z,2.51
2022-12-17T06:45:09.005Z,1.56
2022-12-17T06:47:55.268Z,2.05
2022-12-17T06:50:41.081Z,1.89
2022-12-17T06:53:28.885Z,2.32
2022-12-17T06:56:19.063Z,1.64
2022-12-17T06:59:05.325Z,1.46
2022-12-17T07:01:51.072Z,1.81
2022-12-17T07:04:37.522Z,1.49
2022-12-17T07:07:23.521Z,1.68
2022-12-17T07:10:13.886Z,1.46
2022-12-17T07:13:02.631Z,1.93
2022-12-17T07:15:49.363Z,1.77
2022-12-17T07:18:36.246Z,2.18
2022-12-17T07:21:22.745Z,1.88
2022-12-17T07:24:10.633Z,1.92
2022-12-17T07:26:56.908Z,1.84
2022-12-17T07:29:45.606Z,1.65
2022-12-17T07:32:31.765Z,1.99
2022-12-17T07:35:18.137Z,1.86
2022-12-17T07:38:04.177Z,1.41
2022-12-17T07:40:50.589Z,1.73
2022-12-17T07:43:37.725Z,1.70
2022-12-17T07:46:27.577Z,1.44
2022-12-17T07:49:13.544Z,1.58
2022-12-17T07:52:00.046Z,1.70
2022-12-17T07:54:47.890Z,1.09
2022-12-17T07:57:37.453Z,1.93
2022-12-17T08:00:24.952Z,1.65
2022-12-17T08:03:17.657Z,1.68
2022-12-17T08:06:00.458Z,1.63
2022-12-17T08:08:46.426Z,1.42
2022-12-17T08:11:32.403Z,1.61
2022-12-17T08:14:18.483Z,1.76
2022-12-17T08:17:04.775Z,2.01
2022-12-17T08:19:52.472Z,1.51
2022-12-17T08:22:39.311Z,0.90
2022-12-17T08:25:27.157Z,1.48
2022-12-17T08:28:41.536Z,1.61
2022-12-17T08:31:22.025Z,1.52
2022-12-17T08:34:09.737Z,1.46
2022-12-17T08:36:57.668Z,1.59
2022-12-17T08:39:46.221Z,1.71
2022-12-17T08:42:31.993Z,1.77
2022-12-17T08:45:18.447Z,2.09
2022-12-17T08:48:05.504Z,1.59
2022-12-17T08:50:52.296Z,1.41
2022-12-17T08:53:40.216Z,1.66
2022-12-17T08:56:26.570Z,1.61
2022-12-17T08:59:13.077Z,1.40
2022-12-17T09:01:59.539Z,1.57
2022-12-17T09:04:45.726Z,1.74
2022-12-17T09:07:32.249Z,1.79
2022-12-17T09:10:24.850Z,1.96
2022-12-17T09:13:10.898Z,2.15
2022-12-17T09:15:57.190Z,1.86
2022-12-17T09:18:46.355Z,1.93
2022-12-17T09:21:34.127Z,2.14
2022-12-17T09:24:20.224Z,1.79
2022-12-17T09:27:07.746Z,2.15
2022-12-17T09:29:53.393Z,1.89
2022-12-17T09:32:39.570Z,1.86
2022-12-17T09:35:26.714Z,1.94
2022-12-17T09:38:13.108Z,2.00
2022-12-17T09:41:04.005Z,1.99
2022-12-17T09:44:02.224Z,1.97
2022-12-17T09:46:57.485Z,2.09
2022-12-17T09:49:47.663Z,1.93
2022-12-17T09:52:41.144Z,2.54
2022-12-17T09:55:45.342Z,2.10
2022-12-17T09:58:39.999Z,2.42
2022-12-17T10:01:35.058Z,2.73
2022-12-17T10:04:23.247Z,2.44
2022-12-17T10:07:13.990Z,2.40
2022-12-17T10:10:03.988Z,2.74
2022-12-17T10:12:49.861Z,2.69
2022-12-17T10:15:35.981Z,2.97
2022-12-17T10:18:29.841Z,3.28
2022-12-17T10:21:21.047Z,2.95
2022-12-17T10:24:25.373Z,3.09
2022-12-17T10:27:19.848Z,3.15
2022-12-17T10:30:05.862Z,3.08
2022-12-17T10:32:51.533Z,2.84
2022-12-17T10:35:43.057Z,2.69
2022-12-17T10:38:32.434Z,3.16
2022-12-17T10:41:20.609Z,3.62
2022-12-17T10:44:06.659Z,3.23
2022-12-17T10:46:53.646Z,3.69
2022-12-17T10:49:43.249Z,3.11
2022-12-17T10:52:46.763Z,3.72
2022-12-17T10:55:44.115Z,3.74
2022-12-17T10:58:34.571Z,3.52
2022-12-17T11:01:23.575Z,3.65
2022-12-17T11:04:12.317Z,3.66
2022-12-17T11:07:03.311Z,3.69
2022-12-17T11:10:08.588Z,4.00
2022-12-17T11:13:00.944Z,3.36
2022-12-17T11:15:57.468Z,3.93
2022-12-17T11:18:49.105Z,3.74
2022-12-17T11:21:42.989Z,3.90
2022-12-17T11:24:36.649Z,3.75
2022-12-17T11:27:30.232Z,3.88
2022-12-17T11:30:16.421Z,3.90
2022-12-17T11:33:39.562Z,4.15
2022-12-17T11:36:38.675Z,3.88
2022-12-17T11:39:34.156Z,4.47
2022-12-17T11:42:38.773Z,4.38
2022-12-17T11:45:36.490Z,4.36
2022-12-17T11:48:30.554Z,4.48
2022-12-17T11:51:25.962Z,4.37
2022-12-17T11:54:30.607Z,4.18
2022-12-17T11:57:37.203Z,4.33
2022-12-17T12:00:36.568Z,4.14
2022-12-17T12:03:39.295Z,4.00
2022-12-17T12:06:36.316Z,4.28
2022-12-17T12:09:33.531Z,4.65
2022-12-17T12:12:33.213Z,4.24
2022-12-17T12:15:29.677Z,4.64
2022-12-17T12:18:22.100Z,4.52
2022-12-17T12:21:49.749Z,3.92
2022-12-17T12:25:06.988Z,3.83
2022-12-17T12:28:03.414Z,3.90
2022-12-17T12:30:59.789Z,4.49
2022-12-17T12:34:05.138Z,3.72
2022-12-17T12:36:53.551Z,4.13
2022-12-17T12:39:54.709Z,3.84
2022-12-17T12:42:52.649Z,4.25
2022-12-17T12:46:03.917Z,3.96
2022-12-17T12:49:01.338Z,3.68
2022-12-17T12:51:52.400Z,3.87
2022-12-17T12:54:50.789Z,4.13
2022-12-17T12:57:53.669Z,4.81
2022-12-17T13:01:03.766Z,4.30
2022-12-17T13:03:55.347Z,3.99
2022-12-17T13:06:54.283Z,4.17
2022-12-17T13:09:40.672Z,4.01
2022-12-17T13:12:37.522Z,4.11
2022-12-17T13:15:27.763Z,4.09
2022-12-17T13:18:16.327Z,3.50
2022-12-17T13:21:00.757Z,3.95
2022-12-17T13:23:36.636Z,4.02
2022-12-17T13:26:23.696Z,4.01
2022-12-17T13:29:12.183Z,4.21
2022-12-17T13:31:59.339Z,4.03
2022-12-17T13:34:37.517Z,3.95
2022-12-17T13:37:15.849Z,3.94
2022-12-17T13:39:54.054Z,3.73
2022-12-17T13:42:31.360Z,3.83
2022-12-17T13:45:05.992Z,3.75
2022-12-17T13:47:38.447Z,3.52
2022-12-17T13:50:38.600Z,3.45
2022-12-17T13:53:13.727Z,3.20
2022-12-17T13:55:43.177Z,3.66
2022-12-17T13:58:25.110Z,3.24
2022-12-17T14:01:04.597Z,3.39
2022-12-17T14:03:57.181Z,3.61
2022-12-17T14:06:25.248Z,3.45
2022-12-17T14:08:58.852Z,3.48
2022-12-17T14:11:46.020Z,4.00
2022-12-17T14:14:23.330Z,3.08
2022-12-17T14:16:51.966Z,3.50
2022-12-17T14:19:20.442Z,2.95
2022-12-17T14:21:49.407Z,2.68
2022-12-17T14:24:27.027Z,3.08
2022-12-17T14:26:58.690Z,3.00
2022-12-17T14:29:31.835Z,3.12
2022-12-17T14:32:03.257Z,3.04
2022-12-17T14:34:45.694Z,3.19
2022-12-17T14:37:22.497Z,2.65
2022-12-17T14:39:55.727Z,3.10
2022-12-17T14:42:29.839Z,3.43
2022-12-17T14:45:02.345Z,2.94
2022-12-17T14:47:34.829Z,2.75
2022-12-17T14:50:08.331Z,2.68
2022-12-17T14:52:42.452Z,3.37
2022-12-17T14:55:40.709Z,2.86
2022-12-17T14:58:23.305Z,2.59
2022-12-17T15:00:56.505Z,2.54
2022-12-17T15:03:28.699Z,2.68
2022-12-17T15:06:02.489Z,2.13
2022-12-17T15:08:39.165Z,2.71
2022-12-17T15:11:11.742Z,2.56
2022-12-17T15:13:40.839Z,2.90
2022-12-17T15:16:10.983Z,2.57
2022-12-17T15:18:40.124Z,2.37
2022-12-17T15:21:13.278Z,2.59
2022-12-17T15:23:52.793Z,2.17
2022-12-17T15:29:36.267Z,1.93
2022-12-17T15:32:04.868Z,1.90
2022-12-17T15:34:33.582Z,1.74
2022-12-17T15:37:01.953Z,1.82
2022-12-17T15:39:31.056Z,1.80
2022-12-17T15:42:18.478Z,1.31
2022-12-17T15:44:47.387Z,2.04
2022-12-17T15:47:16.361Z,1.82
2022-12-17T15:49:45.578Z,1.80
2022-12-17T15:52:15.507Z,1.82
2022-12-17T15:54:44.721Z,1.41
2022-12-17T15:57:18.712Z,1.47
2022-12-17T15:59:48.488Z,1.77
2022-12-17T16:02:17.315Z,1.36
2022-12-17T16:04:47.053Z,0.91
2022-12-17T16:07:16.713Z,1.24
2022-12-17T16:09:46.096Z,1.55
2022-12-17T16:12:18.198Z,1.30
2022-12-17T16:14:47.215Z,1.53
2022-12-17T16:20:13.999Z,1.41
2022-12-17T16:22:43.822Z,1.02
2022-12-17T16:25:13.340Z,0.75
2022-12-17T16:27:44.535Z,0.97
2022-12-17T16:30:16.658Z,0.81
2022-12-17T16:32:46.859Z,0.41
2022-12-17T16:35:18.740Z,0.67
2022-12-17T16:37:48.848Z,0.93
2022-12-17T16:40:21.326Z,1.01
2022-12-17T16:42:56.537Z,1.24
2022-12-17T16:45:26.321Z,0.82
2022-12-17T16:47:57.121Z,0.52
2022-12-17T16:50:32.472Z,0.85
2022-12-17T16:53:02.983Z,0.70
2022-12-17T16:55:33.509Z,0.96
2022-12-17T16:58:06.596Z,0.84
2022-12-17T17:00:37.998Z,0.67
2022-12-17T17:03:09.315Z,1.03
2022-12-17T17:06:08.361Z,0.86
2022-12-17T17:08:40.935Z,1.10
2022-12-17T17:11:15.814Z,1.03
2022-12-17T17:13:47.229Z,0.86
2022-12-17T17:16:21.030Z,0.50
2022-12-17T17:18:51.154Z,0.61
2022-12-17T17:21:30.801Z,0.79
2022-12-17T17:24:03.540Z,1.04
2022-12-17T17:26:35.873Z,0.73
2022-12-17T17:29:07.837Z,0.78
2022-12-17T17:34:37.533Z,0.42
2022-12-17T17:37:10.278Z,0.88
2022-12-17T17:39:39.722Z,0.66
2022-12-17T17:42:09.756Z,0.59
2022-12-17T17:44:40.373Z,0.51
2022-12-17T17:47:09.137Z,0.62
2022-12-17T17:49:37.998Z,0.63
2022-12-17T17:52:10.388Z,0.43
2022-12-17T17:54:43.328Z,0.72
2022-12-17T17:57:13.404Z,0.57
2022-12-17T17:59:43.739Z,0.41
2022-12-17T18:02:13.318Z,0.36
2022-12-17T18:04:43.105Z,0.82
2022-12-17T18:07:28.860Z,0.48
2022-12-17T18:09:59.930Z,0.33
2022-12-17T18:12:46.485Z,0.17
2022-12-17T18:15:19.349Z,0.40
2022-12-17T18:17:52.607Z,0.22
2022-12-17T18:20:21.957Z,0.48
2022-12-17T18:22:51.007Z,0.13
2022-12-17T18:25:23.004Z,0.88
2022-12-17T18:27:54.451Z,0.72
2022-12-17T18:30:24.775Z,0.42
2022-12-17T18:32:53.598Z,0.40
2022-12-17T18:35:23.471Z,0.27
2022-12-17T18:37:53.515Z,0.10
2022-12-17T18:40:22.488Z,0.79
2022-12-17T18:43:08.478Z,0.50
2022-12-17T18:45:39.508Z,0.45
2022-12-17T18:48:09.585Z,0.14
2022-12-17T18:50:39.984Z,0.16
2022-12-17T18:53:09.613Z,0.49
2022-12-17T18:55:40.787Z,0.96
2022-12-17T18:58:13.186Z,0.47
2022-12-17T19:00:45.086Z,0.83
2022-12-17T19:03:15.082Z,0.48
2022-12-17T19:05:47.229Z,0.24
2022-12-17T19:08:18.490Z,0.46
2022-12-17T19:10:47.061Z,0.49
2022-12-17T19:13:17.397Z,0.58
2022-12-17T19:15:48.330Z,0.43
2022-12-17T19:18:17.804Z,0.66
2022-12-17T19:20:46.902Z,0.41
2022-12-17T19:23:16.685Z,0.14
2022-12-17T19:25:45.859Z,0.58
2022-12-17T19:28:14.519Z,0.73
2022-12-17T19:30:44.256Z,0.56
2022-12-17T19:33:14.633Z,0.53
2022-12-17T19:35:57.380Z,0.55
2022-12-17T19:38:27.272Z,0.81
2022-12-17T19:40:56.690Z,0.36
2022-12-17T19:43:27.045Z,-0.10
2022-12-17T19:46:01.836Z,0.11
2022-12-17T19:48:36.095Z,-0.10
2022-12-17T19:51:07.196Z,0.08
2022-12-17T19:53:38.543Z,0.39
2022-12-17T19:56:18.261Z,0.22
2022-12-17T19:58:48.906Z,0.41
2022-12-17T20:01:22.356Z,0.25
2022-12-17T20:03:56.867Z,0.09
2022-12-17T20:06:29.621Z,0.03
2022-12-17T20:09:02.013Z,0.11
2022-12-17T20:11:36.542Z,0.59
2022-12-17T20:14:08.871Z,0.25
2022-12-17T20:16:42.606Z,0.29
2022-12-17T20:19:17.012Z,0.12
2022-12-17T20:21:46.383Z,0.51
2022-12-17T20:24:18.352Z,0.16
2022-12-17T20:26:53.305Z,0.03
2022-12-17T20:29:23.618Z,0.24
2022-12-17T20:31:53.890Z,0.41
2022-12-17T20:34:25.609Z,0.21
2022-12-17T20:36:55.800Z,0.04
2022-12-17T20:39:27.756Z,0.21
2022-12-17T20:41:58.072Z,0.62
2022-12-17T20:44:27.269Z,0.36
2022-12-17T20:46:56.579Z,0.15
2022-12-17T20:49:26.991Z,0.65
2022-12-17T20:51:55.827Z,0.90
2022-12-17T20:54:24.518Z,0.93
2022-12-17T20:56:56.774Z,0.57
2022-12-17T20:59:25.384Z,0.65
2022-12-17T21:01:56.473Z,1.08
2022-12-17T21:04:28.741Z,0.37
2022-12-17T21:06:58.225Z,0.29
2022-12-17T21:09:27.221Z,-0.08
2022-12-17T21:12:03.798Z,0.29
2022-12-17T21:14:35.758Z,0.30
2022-12-17T21:17:05.469Z,0.13
2022-12-17T21:19:36.258Z,-0.15
2022-12-17T21:22:05.609Z,-0.08
2022-12-17T21:24:35.116Z,0.47
2022-12-17T21:27:03.802Z,0.35
2022-12-17T21:29:32.565Z,0.34
2022-12-17T21:32:00.962Z,0.06
2022-12-17T21:34:33.112Z,0.34
2022-12-17T21:37:06.207Z,-0.34
2022-12-17T21:39:38.603Z,0.58
2022-12-17T21:42:26.435Z,-0.22
2022-12-17T21:44:56.771Z,0.36
2022-12-17T21:47:26.881Z,-0.52
2022-12-17T21:49:57.092Z,-0.05
2022-12-17T21:52:28.581Z,-0.81
2022-12-17T21:54:57.655Z,-0.22
2022-12-17T21:57:26.528Z,0.06
2022-12-17T21:59:55.022Z,-0.50
2022-12-17T22:02:24.196Z,-0.03
2022-12-17T22:04:53.363Z,0.11
2022-12-17T22:07:24.387Z,0.04
2022-12-17T22:10:27.251Z,0.46
2022-12-17T22:13:08.113Z,0.08
2022-12-17T22:15:45.122Z,0.50
2022-12-17T22:18:17.453Z,0.14
2022-12-17T22:20:45.955Z,-0.18
2022-12-17T22:23:15.715Z,-0.12
2022-12-17T22:25:46.477Z,-0.09
2022-12-17T22:28:15.676Z,-0.08
2022-12-17T22:31:02.207Z,0.16
2022-12-17T22:33:51.738Z,-0.56
2022-12-17T22:37:08.125Z,0.15
2022-12-17T22:42:40.399Z,0.03
2022-12-17T22:44:37.050Z,0.13
2022-12-17T22:45:13.761Z,-0.28
2022-12-17T22:47:42.976Z,-0.56
2022-12-17T22:50:12.709Z,-0.49
2022-12-17T22:52:42.281Z,-0.65
2022-12-17T22:55:15.477Z,-0.45
2022-12-17T22:57:46.507Z,-0.46
2022-12-17T23:00:21.913Z,-0.31
2022-12-17T23:02:55.438Z,-0.29
2022-12-17T23:05:26.682Z,-0.66
2022-12-17T23:07:55.821Z,-0.42
2022-12-17T23:10:26.565Z,-0.65
2022-12-17T23:12:57.779Z,-0.60
2022-12-17T23:15:31.199Z,-0.59
2022-12-17T23:18:07.708Z,-0.48
2022-12-17T23:20:38.419Z,-0.75
2022-12-17T23:23:08.133Z,-0.67
2022-12-17T23:25:37.811Z,-0.81
2022-12-17T23:28:09.419Z,-0.65
2022-12-17T23:30:40.202Z,-1.08
2022-12-17T23:33:08.818Z,-0.68
2022-12-17T23:35:37.259Z,-0.47
2022-12-17T23:38:06.887Z,-0.55
2022-12-17T23:40:35.969Z,-0.39
2022-12-17T23:43:05.159Z,0.16
2022-12-17T23:45:35.609Z,-0.03
2022-12-17T23:48:07.970Z,-0.15
2022-12-17T23:50:36.569Z,-0.21
2022-12-17T23:53:05.478Z,-0.53
2022-12-17T23:55:35.483Z,-0.31
2022-12-17T23:58:04.177Z,-0.50
